Aviation Digital Data Service (ADDS)

Output produced by TAFs form (1229 UTC 25 July 2017)
found at http://www.aviationweather.gov/adds/tafs/
 
METAR text: EFHK 251220Z 12007KT 9999 VCSH SCT021 FEW040CB BKN080 19/13 Q1009 NOSIG
Conditions at: EFHK (HELSINKI/VANTAA , FI) observed 1220 UTC 25 July 2017
Temperature: 19.0°C (66°F)
Dewpoint: 13.0°C (55°F) [RH = 68%]
Pressure (altimeter): 29.79 inches Hg (1009.0 mb)
Winds: from the ESE (120 degrees) at 8 MPH (7 knots; 3.6 m/s)
Visibility: 6 or more miles (10+ km)
Ceiling: 8000 feet AGL
Clouds: scattered clouds at 2100 feet AGL
few clouds at 4000 feet AGL
broken clouds at 8000 feet AGL
Weather: VCSH  (showers in vicinity)

Forecast for: EFHK (HELSINKI/VANTAA , FI)
Text: TAF EFHK 251131Z 2512/2612 04008KT 9999 SCT025 BKN080
Forecast period: 1200 UTC 25 July 2017 to 1200 UTC 26 July 2017
Forecast type: FROM: standard forecast or significant change
Winds: from the NE (40 degrees) at 9 MPH (8 knots; 4.2 m/s)
Visibility: 6 or more miles (10+ km)
Ceiling: 8000 feet AGL
Clouds: scattered clouds at 2500 feet AGL
broken clouds at 8000 feet AGL
Weather: no significant weather forecast for this period
Text: TEMPO 2512/2514 FEW040CB BKN070
Forecast period: 1200 to 1400 UTC 25 July 2017
Forecast type: TEMPORARY: The following changes expected for less than half the time period
Ceiling: 7000 feet AGL
Clouds: few clouds at 4000 feet AGL
broken clouds at 7000 feet AGL
Weather: no significant weather forecast for this period